Time;durP1;ratioP1;P1;durP2;ratioP2;P2;SDS_P1;SDS_P2;PMS_P1;PMS_P2;Temp;Humidity;BMP_temperature;BMP_pressure;BME280_temperature;BME280_humidity;BME280_pressure;Samples;Min_cycle;Max_cycle;Signal;HPM_P1;HPM_P2
2023/02/18 00:02:03;;;;;;;0.30;0.30;;;;;;;-10.13;81.68;99859.34;5082291;28;20039;-70
2023/02/18 00:04:29;;;;;;;0.30;0.30;;;;;;;-10.12;81.46;99866.28;5083795;28;20636;-70
2023/02/18 00:07:14;;;;;;;0.30;0.30;;;;;;;-10.16;81.83;99859.59;5095180;28;20047;-70
2023/02/18 00:09:41;;;;;;;0.30;0.30;;;;;;;-10.17;81.64;99857.91;5107913;28;20040;-68
2023/02/18 00:12:07;;;;;;;0.30;0.30;;;;;;;-10.18;81.88;99850.13;5105951;28;20040;-68
2023/02/18 00:14:33;;;;;;;0.20;0.20;;;;;;;-10.19;81.96;99848.47;5105627;28;20043;-68
2023/02/18 00:16:59;;;;;;;0.30;0.30;;;;;;;-10.22;81.95;99849.56;5085426;28;20138;-68
2023/02/18 00:19:25;;;;;;;0.50;0.40;;;;;;;-10.22;82.19;99849.56;5073930;28;20123;-68
2023/02/18 00:21:52;;;;;;;0.30;0.30;;;;;;;-10.23;81.86;99849.69;5086105;28;20048;-67
2023/02/18 00:24:18;;;;;;;0.30;0.30;;;;;;;-10.27;82.12;99843.88;5050906;28;20103;-68
2023/02/18 00:26:49;;;;;;;0.20;0.20;;;;;;;-10.28;81.93;99845.66;5066996;28;20146;-68
2023/02/18 00:29:16;;;;;;;0.30;0.30;;;;;;;-10.26;81.95;99840.25;5085452;28;20066;-68
2023/02/18 00:31:42;;;;;;;0.20;0.20;;;;;;;-10.29;81.52;99838.69;5048924;28;20590;-70
2023/02/18 00:36:54;;;;;;;0.30;0.30;;;;;;;-10.33;82.00;99839.97;5102914;28;20074;-70
2023/02/18 00:39:21;;;;;;;0.30;0.30;;;;;;;-10.36;81.41;99831.47;5081066;28;20054;-70
2023/02/18 00:41:48;;;;;;;0.30;0.30;;;;;;;-10.40;81.59;99823.81;5068842;28;20442;-70
2023/02/18 00:44:14;;;;;;;0.20;0.20;;;;;;;-10.50;81.57;99812.41;5082964;28;20044;-70
2023/02/18 00:46:41;;;;;;;0.27;0.27;;;;;;;-10.47;81.37;99822.72;5082851;28;20101;-70
2023/02/18 00:49:07;;;;;;;0.30;0.30;;;;;;;-10.42;81.49;99822.31;5077380;28;20107;-70
2023/02/18 00:51:34;;;;;;;0.20;0.20;;;;;;;-10.42;81.54;99817.88;5052728;28;20567;-70
2023/02/18 00:54:01;;;;;;;0.28;0.28;;;;;;;-10.45;81.27;99810.22;5076536;28;20036;-70
2023/02/18 00:56:27;;;;;;;0.30;0.30;;;;;;;-10.44;81.19;99814.53;5108829;28;20503;-69
2023/02/18 00:58:55;;;;;;;0.20;0.20;;;;;;;-10.43;81.09;99808.25;5089034;28;20408;-70
2023/02/18 01:01:21;;;;;;;0.10;0.10;;;;;;;-10.46;81.04;99807.69;5107578;28;20051;-70
2023/02/18 01:03:48;;;;;;;0.30;0.30;;;;;;;-10.52;80.93;99803.78;5110819;28;20043;-70
2023/02/18 01:06:32;;;;;;;0.20;0.20;;;;;;;-10.57;81.26;99804.19;5108094;28;20050;-70
2023/02/18 01:08:58;;;;;;;0.27;0.27;;;;;;;-10.59;80.85;99798.22;5088706;28;20070;-70
2023/02/18 01:11:25;;;;;;;0.30;0.30;;;;;;;-10.65;81.31;99788.22;5106180;28;20514;-70
2023/02/18 01:14:11;;;;;;;0.30;0.30;;;;;;;-10.68;81.33;99780.56;5108215;28;20546;-70
2023/02/18 01:16:37;;;;;;;0.30;0.30;;;;;;;-10.70;81.52;99769.25;5106167;28;20058;-70
2023/02/18 01:19:07;;;;;;;0.30;0.30;;;;;;;-10.69;81.01;99768.31;5073715;28;20047;-70
2023/02/18 01:21:33;;;;;;;0.30;0.30;;;;;;;-10.75;81.03;99759.13;5089365;28;20052;-70
2023/02/18 01:23:59;;;;;;;0.30;0.30;;;;;;;-10.81;81.17;99740.34;5103730;28;20112;-70
2023/02/18 01:26:26;;;;;;;0.30;0.30;;;;;;;-10.70;81.49;99758.69;5072042;28;20048;-70
2023/02/18 01:28:52;;;;;;;0.33;0.33;;;;;;;-10.74;81.13;99749.38;5087806;28;20063;-71
2023/02/18 01:31:21;;;;;;;0.28;0.28;;;;;;;-10.76;81.36;99735.47;5052746;28;20100;-70
2023/02/18 01:33:47;;;;;;;0.17;0.17;;;;;;;-10.75;81.30;99738.00;5071787;28;20055;-70
2023/02/18 01:36:32;;;;;;;0.30;0.30;;;;;;;-10.74;81.46;99731.72;5088791;28;20047;-70
2023/02/18 01:38:58;;;;;;;0.20;0.20;;;;;;;-10.76;81.30;99732.81;5090641;28;20534;-70
2023/02/18 01:41:43;;;;;;;0.20;0.20;;;;;;;-10.84;81.50;99721.16;5107293;28;20043;-70
2023/02/18 01:44:29;;;;;;;0.47;0.35;;;;;;;-10.81;81.35;99722.66;5072337;28;20052;-70
2023/02/18 01:46:57;;;;;;;0.30;0.30;;;;;;;-10.84;81.33;99710.59;5088347;28;20047;-70
2023/02/18 01:49:29;;;;;;;0.20;0.20;;;;;;;-10.75;81.35;99716.00;5087195;28;20047;-71
2023/02/18 01:51:59;;;;;;;0.30;0.30;;;;;;;-10.67;81.34;99716.16;5087633;28;20043;-70
2023/02/18 01:54:28;;;;;;;0.20;0.20;;;;;;;-10.65;81.04;99702.78;5102725;28;20601;-70
2023/02/18 01:56:58;;;;;;;0.43;0.30;;;;;;;-10.58;80.87;99701.25;5106250;28;20043;-70
2023/02/18 01:59:27;;;;;;;0.27;0.27;;;;;;;-10.59;80.46;99704.88;5088313;28;20071;-70
2023/02/18 02:01:54;;;;;;;0.30;0.30;;;;;;;-10.57;80.33;99705.56;5086790;28;20093;-70
2023/02/18 02:04:22;;;;;;;0.25;0.25;;;;;;;-10.56;80.31;99702.78;5085461;28;20158;-70
2023/02/18 02:06:48;;;;;;;0.20;0.20;;;;;;;-10.62;80.29;99689.28;5071318;28;20146;-71
2023/02/18 02:09:17;;;;;;;0.10;0.10;;;;;;;-10.66;80.57;99693.19;5107230;28;20048;-71
2023/02/18 02:12:06;;;;;;;0.20;0.20;;;;;;;-10.80;80.51;99681.22;5072581;28;20150;-70
2023/02/18 02:14:46;;;;;;;0.30;0.30;;;;;;;-10.99;80.80;99661.78;5087792;28;20054;-70
2023/02/18 02:17:21;;;;;;;0.20;0.20;;;;;;;-10.78;81.47;99676.66;5108288;28;20566;-71
2023/02/18 02:20:26;;;;;;;0.20;0.20;;;;;;;-10.76;81.20;99672.91;5088649;28;20228;-70
2023/02/18 02:23:33;;;;;;;0.30;0.30;;;;;;;-10.63;81.14;99675.25;5094717;28;20429;-70
2023/02/18 02:30:18;;;;;;;0.10;0.10;;;;;;;-10.38;79.90;99651.78;5107517;28;20503;-70
2023/02/18 02:33:07;;;;;;;0.30;0.30;;;;;;;-10.17;79.51;99670.09;5088115;28;20051;-70
2023/02/18 02:35:40;;;;;;;0.20;0.20;;;;;;;-10.06;79.21;99661.19;5083703;28;20062;-70
2023/02/18 02:38:12;;;;;;;0.23;0.23;;;;;;;-10.14;78.39;99645.19;5086070;28;20452;-70
2023/02/18 02:40:45;;;;;;;0.13;0.13;;;;;;;-10.00;78.27;99665.91;5106159;28;20487;-70
2023/02/18 02:43:19;;;;;;;0.20;0.20;;;;;;;-9.99;78.28;99664.06;5054202;28;20080;-70
2023/02/18 02:45:54;;;;;;;0.30;0.30;;;;;;;-9.94;78.44;99658.34;5084799;28;20051;-71
2023/02/18 02:51:44;;;;;;;0.30;0.30;;;;;;;-9.81;77.85;99647.44;5106549;28;20202;-70
2023/02/18 02:57:40;;;;;;;0.30;0.30;;;;;;;-9.68;77.48;99640.81;5106916;28;20548;-70
2023/02/18 03:00:39;;;;;;;0.40;0.40;;;;;;;-9.74;77.23;99630.00;5108046;28;20491;-70
2023/02/18 03:03:29;;;;;;;0.30;0.30;;;;;;;-9.80;77.40;99638.53;5104347;28;20507;-70
2023/02/18 03:06:16;;;;;;;0.30;0.30;;;;;;;-9.85;77.78;99631.03;5071294;28;20419;-71
2023/02/18 03:08:54;;;;;;;0.40;0.40;;;;;;;-9.89;77.98;99625.19;5052370;28;20048;-70
2023/02/18 03:11:20;;;;;;;0.30;0.23;;;;;;;-9.91;77.80;99621.84;5069853;28;20040;-70
2023/02/18 03:13:57;;;;;;;0.20;0.20;;;;;;;-9.83;77.93;99621.97;5104142;28;20074;-70
2023/02/18 03:16:51;;;;;;;0.33;0.33;;;;;;;-9.84;77.87;99622.91;5087104;28;20506;-70
2023/02/18 03:19:55;;;;;;;0.30;0.30;;;;;;;-9.87;77.96;99609.16;5104982;28;20066;-69
2023/02/18 03:22:26;;;;;;;0.30;0.30;;;;;;;-9.86;77.83;99610.84;5087429;28;20474;-67
2023/02/18 03:25:13;;;;;;;0.20;0.20;;;;;;;-9.85;77.65;99607.19;5105905;28;20052;-67
2023/02/18 03:27:44;;;;;;;0.20;0.20;;;;;;;-9.92;77.79;99592.88;5084801;28;20058;-67
2023/02/18 03:30:33;;;;;;;0.37;0.37;;;;;;;-9.87;78.00;99595.94;5081283;28;20190;-68
2023/02/18 03:33:05;;;;;;;0.20;0.20;;;;;;;-9.90;77.76;99601.53;5063015;28;20039;-67
2023/02/18 03:35:32;;;;;;;0.37;0.37;;;;;;;-9.86;77.91;99584.38;5048693;28;20535;-68
2023/02/18 03:38:11;;;;;;;0.20;0.20;;;;;;;-9.78;78.12;99573.03;5065885;28;20521;-68
2023/02/18 03:40:39;;;;;;;0.20;0.20;;;;;;;-9.68;77.63;99568.50;5046461;28;20086;-68
2023/02/18 03:43:06;;;;;;;0.20;0.20;;;;;;;-9.60;77.50;99581.00;5066498;28;20507;-68
2023/02/18 03:45:32;;;;;;;0.30;0.30;;;;;;;-9.59;77.30;99572.91;5084774;28;20076;-68
2023/02/18 03:48:17;;;;;;;0.20;0.20;;;;;;;-9.70;77.59;99565.19;5070477;28;20048;-67
2023/02/18 03:50:43;;;;;;;0.20;0.20;;;;;;;-9.75;77.97;99570.09;5063578;28;20614;-68
2023/02/18 03:53:09;;;;;;;0.20;0.20;;;;;;;-9.84;78.02;99567.34;5049653;28;20101;-67
2023/02/18 03:55:38;;;;;;;0.38;0.30;;;;;;;-9.91;78.23;99562.78;5064681;28;20131;-67
2023/02/18 03:58:04;;;;;;;0.40;0.40;;;;;;;-9.93;78.48;99559.47;5081918;28;20560;-68
2023/02/18 04:00:30;;;;;;;0.30;0.30;;;;;;;-9.89;78.51;99544.97;5072557;28;20043;-67
2023/02/18 04:02:56;;;;;;;0.20;0.20;;;;;;;-9.83;78.76;99541.72;5064950;28;20503;-67
2023/02/18 04:05:22;;;;;;;0.20;0.20;;;;;;;-9.78;78.46;99539.44;5030888;28;20044;-68
2023/02/18 04:07:48;;;;;;;0.30;0.30;;;;;;;-9.75;78.64;99533.88;5084952;28;20466;-68
2023/02/18 04:10:14;;;;;;;0.30;0.30;;;;;;;-9.75;78.41;99535.69;5065508;28;20139;-68
2023/02/18 04:12:42;;;;;;;0.20;0.20;;;;;;;-9.76;78.57;99534.03;5066165;28;20104;-68
2023/02/18 04:15:08;;;;;;;;;;;;;;;-9.69;78.79;99521.84;5091306;28;20044;-68
2023/02/18 04:18:11;;;;;;;0.30;0.30;;;;;;;-9.56;78.34;99532.09;5083755;28;19924;-69
2023/02/18 04:20:57;;;;;;;0.20;0.20;;;;;;;-9.52;77.58;99524.66;5082746;28;20048;-68
2023/02/18 04:23:23;;;;;;;0.20;0.20;;;;;;;-9.52;77.95;99514.91;5101805;28;20532;-68
2023/02/18 04:25:49;;;;;;;0.30;0.30;;;;;;;-9.50;77.69;99504.19;5084226;28;20055;-67
2023/02/18 04:28:16;;;;;;;0.30;0.30;;;;;;;-9.54;77.75;99507.09;5093186;28;20060;-67
2023/02/18 04:30:42;;;;;;;;;;;;;;;-9.51;78.15;99505.97;5083349;28;20075;-67
2023/02/18 04:33:09;;;;;;;0.60;0.40;;;;;;;-9.55;78.08;99501.97;5076883;28;19947;-68
2023/02/18 04:35:35;;;;;;;0.20;0.20;;;;;;;-9.61;78.29;99497.25;5098872;28;20414;-67
2023/02/18 04:38:02;;;;;;;0.30;0.30;;;;;;;-9.59;78.52;99487.38;5101581;28;20058;-67
2023/02/18 04:40:29;;;;;;;0.10;0.10;;;;;;;-9.64;78.93;99485.19;5059450;28;20588;-67
2023/02/18 04:42:56;;;;;;;0.20;0.20;;;;;;;-9.76;79.02;99484.56;5082291;28;20082;-67
2023/02/18 04:48:27;;;;;;;0.20;0.20;;;;;;;-9.82;80.77;99479.88;5064618;28;20060;-70
2023/02/18 04:50:53;;;;;;;0.20;0.20;;;;;;;-9.72;81.10;99471.84;5100269;28;20058;-70
2023/02/18 04:53:19;;;;;;;0.20;0.20;;;;;;;-9.59;80.57;99463.56;5102276;28;20138;-70
2023/02/18 05:01:38;;;;;;;0.20;0.20;;;;;;;-9.50;80.52;99464.47;5066397;28;20418;-69
2023/02/18 05:04:04;;;;;;;0.20;0.20;;;;;;;-9.48;80.29;99467.78;5085398;28;20047;-69
2023/02/18 05:06:30;;;;;;;0.10;0.10;;;;;;;-9.46;80.51;99460.50;5104365;28;20043;-69
2023/02/18 05:08:56;;;;;;;0.20;0.20;;;;;;;-9.44;80.06;99456.72;5105115;28;20036;-69
2023/02/18 05:11:22;;;;;;;0.20;0.20;;;;;;;-9.45;79.65;99455.03;5101553;28;20413;-69
2023/02/18 05:13:48;;;;;;;0.13;0.13;;;;;;;-9.48;80.23;99451.88;5103220;28;20055;-69
2023/02/18 05:19:19;;;;;;;0.30;0.30;;;;;;;-9.46;80.30;99456.03;5062910;28;20050;-69
2023/02/18 05:22:22;;;;;;;0.20;0.20;;;;;;;-9.44;80.20;99453.25;5081493;28;20609;-69
2023/02/18 05:25:08;;;;;;;0.33;0.33;;;;;;;-9.38;80.51;99441.22;5083559;28;20040;-69
2023/02/18 05:27:34;;;;;;;0.30;0.30;;;;;;;-9.50;82.00;99436.16;5077871;28;20062;-69
2023/02/18 05:30:00;;;;;;;0.30;0.30;;;;;;;-9.47;82.71;99435.03;5080447;28;20067;-68
2023/02/18 05:32:29;;;;;;;0.20;0.20;;;;;;;-9.47;82.62;99430.53;5077786;28;20539;-69
2023/02/18 05:34:56;;;;;;;0.20;0.20;;;;;;;-9.40;82.48;99428.09;5071358;28;20044;-69
2023/02/18 05:37:23;;;;;;;0.28;0.28;;;;;;;-9.45;82.19;99425.91;5071826;28;20055;-69
2023/02/18 05:39:49;;;;;;;0.37;0.37;;;;;;;-9.52;81.99;99418.75;5086003;28;20052;-69
2023/02/18 05:42:15;;;;;;;0.30;0.30;;;;;;;-9.43;82.49;99413.38;5087251;28;20046;-70
2023/02/18 05:44:41;;;;;;;0.93;0.30;;;;;;;-9.33;81.54;99418.56;5067020;28;20426;-69
2023/02/18 05:47:09;;;;;;;0.30;0.30;;;;;;;-9.43;80.93;99408.09;5086563;28;20042;-69
2023/02/18 05:49:36;;;;;;;0.27;0.27;;;;;;;-9.41;81.50;99407.91;5084618;28;20094;-69
2023/02/18 05:52:05;;;;;;;0.40;0.40;;;;;;;-9.24;81.48;99411.50;5051630;28;20058;-69
2023/02/18 05:55:07;;;;;;;0.20;0.20;;;;;;;-9.16;80.96;99400.13;5085993;28;20036;-70
2023/02/18 05:57:34;;;;;;;0.20;0.20;;;;;;;-9.12;80.78;99393.53;5086982;28;20047;-69
2023/02/18 06:00:18;;;;;;;0.30;0.30;;;;;;;-9.08;79.80;99391.41;5088172;28;20127;-69
2023/02/18 06:02:45;;;;;;;0.30;0.30;;;;;;;-9.07;79.35;99374.53;5096352;28;20066;-67
2023/02/18 06:05:11;;;;;;;0.20;0.20;;;;;;;-8.99;78.91;99379.84;5062649;28;20139;-67
2023/02/18 06:07:39;;;;;;;0.22;0.22;;;;;;;-8.98;78.29;99374.41;5099441;28;20659;-69
2023/02/18 06:10:07;;;;;;;0.22;0.22;;;;;;;-8.84;78.21;99375.59;5096897;28;20036;-67
2023/02/18 06:12:33;;;;;;;0.28;0.28;;;;;;;-8.78;77.87;99368.84;5096722;28;20040;-67
2023/02/18 06:14:59;;;;;;;0.20;0.20;;;;;;;-8.77;77.97;99373.16;5077234;28;20051;-67
2023/02/18 06:17:43;;;;;;;0.30;0.30;;;;;;;-8.72;77.83;99359.44;5069476;28;20040;-67
2023/02/18 06:22:57;;;;;;;0.30;0.30;;;;;;;-8.47;77.33;99378.03;5093551;28;20068;-67
2023/02/18 06:25:41;;;;;;;0.30;0.30;;;;;;;-8.60;76.29;99359.94;5092942;28;20101;-67
2023/02/18 06:28:26;;;;;;;0.20;0.20;;;;;;;-8.70;75.95;99350.31;5098588;28;20047;-67
2023/02/18 06:30:52;;;;;;;0.30;0.30;;;;;;;-8.69;75.84;99336.09;5067860;28;20079;-67
2023/02/18 06:33:18;;;;;;;0.30;0.30;;;;;;;-8.67;75.23;99338.56;5095231;28;20289;-67
2023/02/18 06:35:53;;;;;;;0.20;0.20;;;;;;;-8.57;75.77;99346.41;5064403;28;20234;-67
2023/02/18 06:38:21;;;;;;;0.30;0.30;;;;;;;-8.62;76.79;99338.91;5085503;28;20044;-67
2023/02/18 06:40:46;;;;;;;;;;;;;;;-8.62;78.23;99336.25;5067187;28;20065;-67
2023/02/18 06:43:12;;;;;;;0.43;0.20;;;;;;;-8.50;78.72;99334.13;5067172;28;19999;-67
2023/02/18 06:45:39;;;;;;;0.20;0.20;;;;;;;-8.45;77.58;99334.44;5103332;28;20045;-67
2023/02/18 06:48:05;;;;;;;0.20;0.20;;;;;;;-8.38;77.66;99328.50;5085785;28;20104;-67
2023/02/18 06:50:50;;;;;;;0.20;0.20;;;;;;;-8.33;76.36;99320.88;5103480;28;20075;-67
2023/02/18 06:56:39;;;;;;;0.30;0.30;;;;;;;-8.20;75.09;99312.41;5086422;28;20090;-70
2023/02/18 06:59:05;;;;;;;0.20;0.20;;;;;;;-8.14;74.54;99298.50;5084239;28;20652;-69
2023/02/18 07:01:31;;;;;;;0.20;0.20;;;;;;;-8.08;74.16;99305.78;5085332;28;20048;-69
2023/02/18 07:03:57;;;;;;;0.20;0.20;;;;;;;-8.13;73.01;99297.50;5085144;28;20495;-67
2023/02/18 07:06:23;;;;;;;0.20;0.20;;;;;;;-8.20;72.72;99300.00;5053735;28;20519;-68
2023/02/18 07:08:51;;;;;;;0.20;0.20;;;;;;;-8.20;73.34;99288.53;5085789;28;20428;-69
2023/02/18 07:11:17;;;;;;;0.30;0.30;;;;;;;-8.09;73.31;99282.09;5093114;28;20044;-70
2023/02/18 07:13:43;;;;;;;0.20;0.20;;;;;;;-8.03;72.88;99286.72;5106077;28;20053;-69
2023/02/18 07:16:09;;;;;;;0.20;0.20;;;;;;;-7.90;72.36;99271.13;5084653;28;20088;-67
2023/02/18 07:18:35;;;;;;;0.30;0.30;;;;;;;-7.74;71.85;99270.25;5106130;28;20082;-67
2023/02/18 07:21:04;;;;;;;0.30;0.30;;;;;;;-7.69;71.25;99262.63;5073467;28;20124;-69
2023/02/18 07:23:30;;;;;;;0.20;0.20;;;;;;;-7.80;71.08;99246.22;5087179;28;20044;-70
2023/02/18 07:26:05;;;;;;;0.20;0.20;;;;;;;-7.66;71.17;99253.47;5049712;28;20510;-70
2023/02/18 07:31:16;;;;;;;0.30;0.30;;;;;;;-7.88;72.01;99250.56;5072156;28;20418;-67
2023/02/18 07:33:42;;;;;;;0.20;0.20;;;;;;;-7.86;72.75;99239.78;5082052;28;20109;-67
2023/02/18 07:36:08;;;;;;;0.23;0.23;;;;;;;-7.84;72.92;99243.91;5066000;28;20074;-67
2023/02/18 07:38:35;;;;;;;0.20;0.20;;;;;;;-7.83;72.74;99226.97;5085454;28;20040;-67
2023/02/18 07:41:01;;;;;;;0.10;0.10;;;;;;;-7.78;72.31;99245.06;5067612;28;20460;-67
2023/02/18 07:43:28;;;;;;;0.20;0.20;;;;;;;-7.80;72.74;99233.78;5083431;28;20123;-68
2023/02/18 07:46:12;;;;;;;0.10;0.10;;;;;;;-7.83;72.84;99229.63;5067488;28;20105;-67
2023/02/18 07:48:39;;;;;;;0.30;0.30;;;;;;;-7.81;73.22;99224.16;5065254;28;20055;-67
2023/02/18 07:51:06;;;;;;;0.20;0.20;;;;;;;-7.62;73.08;99236.22;5082196;28;20048;-67
2023/02/18 07:53:32;;;;;;;;;;;;;;;-7.59;72.58;99213.81;5097713;28;20051;-67
2023/02/18 07:55:59;;;;;;;0.13;0.13;;;;;;;-7.50;72.81;99201.31;5084436;28;19924;-67
2023/02/18 07:58:30;;;;;;;0.20;0.20;;;;;;;-7.39;72.67;99206.25;5086828;28;20048;-67
2023/02/18 08:00:57;;;;;;;0.20;0.20;;;;;;;-7.43;72.31;99199.66;5102065;28;20593;-67
2023/02/18 08:03:25;;;;;;;0.20;0.20;;;;;;;-7.52;72.75;99198.00;5067730;28;20498;-69
2023/02/18 08:05:52;;;;;;;0.20;0.20;;;;;;;-7.43;73.16;99195.16;5103711;28;20143;-68
2023/02/18 08:08:23;;;;;;;0.20;0.20;;;;;;;-7.19;72.89;99201.34;5090595;28;20117;-68
2023/02/18 08:10:51;;;;;;;0.20;0.20;;;;;;;-7.23;72.52;99189.44;5082850;28;20044;-67
2023/02/18 08:13:17;;;;;;;0.25;0.25;;;;;;;-7.21;73.47;99179.44;5064234;28;20048;-70
2023/02/18 08:15:46;;;;;;;0.20;0.20;;;;;;;-6.96;73.52;99181.13;5104605;28;20112;-67
2023/02/18 08:18:15;;;;;;;0.30;0.30;;;;;;;-6.82;72.47;99167.09;5105718;28;20063;-67
2023/02/18 08:21:00;;;;;;;0.13;0.13;;;;;;;-6.86;72.35;99163.13;5101821;28;20055;-68
2023/02/18 08:26:29;;;;;;;0.10;0.10;;;;;;;-6.51;71.44;99160.88;5103070;28;20047;-67
2023/02/18 08:28:55;;;;;;;0.17;0.17;;;;;;;-6.55;71.13;99154.25;5081844;28;20583;-67
2023/02/18 08:31:26;;;;;;;0.17;0.17;;;;;;;-6.74;71.33;99144.94;5083689;28;20150;-67
2023/02/18 08:33:53;;;;;;;0.20;0.20;;;;;;;-6.63;71.50;99152.50;5080244;28;20147;-67
2023/02/18 08:36:20;;;;;;;0.15;0.15;;;;;;;-6.57;71.77;99143.78;5082373;28;20068;-67
2023/02/18 08:38:46;;;;;;;0.10;0.10;;;;;;;-6.52;71.20;99140.59;5076475;28;20051;-67
2023/02/18 08:41:13;;;;;;;0.20;0.20;;;;;;;-6.45;71.30;99152.16;5064254;28;20503;-68
2023/02/18 08:43:39;;;;;;;0.15;0.15;;;;;;;-6.34;71.11;99139.44;5062760;28;20090;-68
2023/02/18 08:46:05;;;;;;;0.10;0.10;;;;;;;-6.32;70.58;99134.75;5066478;28;20493;-67
2023/02/18 08:48:33;;;;;;;0.20;0.20;;;;;;;-6.43;70.75;99123.53;5061083;28;20044;-67
2023/02/18 08:54:03;;;;;;;0.10;0.10;;;;;;;-6.36;70.90;99126.28;5061191;28;20075;-67
2023/02/18 08:57:06;;;;;;;0.20;0.20;;;;;;;-6.34;71.07;99108.31;5062320;28;20690;-68
2023/02/18 09:02:17;;;;;;;0.20;0.20;;;;;;;-6.18;71.05;99080.72;5061242;28;20048;-70
2023/02/18 09:04:45;;;;;;;0.10;0.10;;;;;;;-6.12;70.68;99089.81;5062140;28;20045;-70
2023/02/18 09:07:11;;;;;;;0.10;0.10;;;;;;;-6.23;71.19;99096.41;5063248;28;20131;-70
2023/02/18 09:09:37;;;;;;;0.10;0.10;;;;;;;-6.13;71.87;99093.47;5044267;28;20070;-70
2023/02/18 09:12:03;;;;;;;0.20;0.20;;;;;;;-5.99;71.51;99081.97;5048466;28;20223;-67
2023/02/18 09:14:30;;;;;;;0.30;0.30;;;;;;;-5.81;70.19;99074.59;5066245;28;20053;-70
2023/02/18 09:17:15;;;;;;;0.10;0.10;;;;;;;-5.71;70.14;99073.28;5063823;28;20616;-68
2023/02/18 09:19:41;;;;;;;0.20;0.20;;;;;;;-5.37;69.56;99062.19;5063303;28;20173;-68
2023/02/18 09:22:27;;;;;;;0.17;0.17;;;;;;;-5.23;68.67;99061.28;5064549;28;20059;-68
2023/02/18 09:28:16;;;;;;;0.20;0.20;;;;;;;-4.79;67.15;99042.59;5064870;28;20080;-67
2023/02/18 09:30:44;;;;;;;0.20;0.20;;;;;;;-4.60;66.23;99041.13;5066072;28;20135;-67
2023/02/18 09:33:11;;;;;;;0.20;0.20;;;;;;;-4.58;65.90;99047.09;5057170;28;20048;-68
2023/02/18 09:35:39;;;;;;;0.20;0.20;;;;;;;-4.35;65.58;99033.47;5085753;28;20048;-68
2023/02/18 09:38:08;;;;;;;0.20;0.20;;;;;;;-4.29;65.58;99026.53;5087095;28;20488;-68
2023/02/18 09:40:36;;;;;;;0.30;0.30;;;;;;;-4.15;64.83;99019.41;4730494;28;10000545;-68
2023/02/18 09:43:04;;;;;;;0.10;0.10;;;;;;;-4.57;63.93;99004.22;5084034;28;20054;-70
2023/02/18 09:48:14;;;;;;;0.20;0.20;;;;;;;-4.96;66.00;99002.88;5082174;28;20071;-67
2023/02/18 09:50:40;;;;;;;0.10;0.10;;;;;;;-4.84;66.24;98995.16;5075830;28;20047;-68
2023/02/18 09:53:12;;;;;;;0.10;0.10;;;;;;;-4.70;66.00;98996.09;5044826;28;20070;-70
2023/02/18 09:55:58;;;;;;;0.10;0.10;;;;;;;-4.45;64.33;99000.97;5065955;28;20388;-70
2023/02/18 09:58:25;;;;;;;;;;;;;;;-4.67;64.79;98985.03;5084399;28;20058;-70
2023/02/18 10:01:16;;;;;;;0.20;0.20;;;;;;;-4.75;64.47;98983.34;5084722;28;20390;-70
2023/02/18 10:03:43;;;;;;;0.20;0.20;;;;;;;-4.86;64.96;98983.88;5086436;28;20142;-70
2023/02/18 10:06:15;;;;;;;0.20;0.20;;;;;;;-3.79;64.45;98982.78;5087784;28;20048;-70
2023/02/18 10:08:45;;;;;;;0.20;0.20;;;;;;;-3.22;61.19;98961.91;5086677;28;20434;-71
2023/02/18 10:11:15;;;;;;;0.27;0.20;;;;;;;-3.26;60.80;98954.53;5070264;28;20080;-70
2023/02/18 10:13:42;;;;;;;0.20;0.20;;;;;;;-3.01;59.93;98960.06;5088997;28;20325;-70
2023/02/18 10:16:14;;;;;;;0.20;0.20;;;;;;;-3.28;60.42;98952.03;5086291;28;20062;-70
2023/02/18 10:18:45;;;;;;;0.20;0.20;;;;;;;-2.96;60.68;98946.88;5084186;28;20507;-70
2023/02/18 10:21:31;;;;;;;0.20;0.20;;;;;;;-2.71;59.88;98939.03;5084141;28;20047;-71
2023/02/18 10:24:02;;;;;;;0.20;0.20;;;;;;;-2.84;60.01;98933.69;5074281;28;20419;-70
2023/02/18 10:26:30;;;;;;;0.20;0.20;;;;;;;-3.03;60.02;98925.50;5065630;28;20419;-70
2023/02/18 10:29:17;;;;;;;0.10;0.10;;;;;;;-3.19;60.45;98920.56;5080035;28;20700;-70
2023/02/18 10:31:51;;;;;;;1.50;0.20;;;;;;;-3.16;60.26;98926.34;5083322;28;20048;-70
2023/02/18 10:34:29;;;;;;;0.30;0.30;;;;;;;-3.15;60.07;98922.63;5066887;28;20051;-70
2023/02/18 10:37:00;;;;;;;0.30;0.30;;;;;;;-2.96;59.44;98906.75;5084653;28;20535;-70
2023/02/18 10:39:44;;;;;;;0.20;0.20;;;;;;;-3.24;58.66;98898.97;5040344;28;20139;-70
2023/02/18 10:42:23;;;;;;;0.20;0.20;;;;;;;-3.33;59.91;98903.72;5079084;28;20062;-70
2023/02/18 10:44:57;;;;;;;0.20;0.20;;;;;;;-2.38;58.22;98898.97;5077309;28;20048;-70
2023/02/18 10:47:36;;;;;;;0.20;0.20;;;;;;;-2.30;57.03;98893.41;5079267;28;20055;-70
2023/02/18 10:50:07;;;;;;;0.20;0.20;;;;;;;-2.12;56.59;98883.84;5068162;28;20113;-70
2023/02/18 10:55:36;;;;;;;0.30;0.30;;;;;;;-2.96;57.62;98863.16;5068936;28;20051;-71
2023/02/18 10:58:03;;;;;;;0.20;0.20;;;;;;;-2.73;57.58;98887.56;5088487;28;20056;-70
2023/02/18 11:00:48;;;;;;;0.20;0.20;;;;;;;-3.34;58.21;98883.34;5088093;28;20268;-70
2023/02/18 11:03:17;;;;;;;0.10;0.10;;;;;;;-3.93;60.09;98891.91;5086809;28;20078;-70
2023/02/18 11:05:46;;;;;;;0.10;0.10;;;;;;;-4.24;61.02;98879.91;5088119;28;20055;-70
2023/02/18 11:08:17;;;;;;;0.20;0.20;;;;;;;-4.37;61.81;98875.38;5070148;28;20411;-71
2023/02/18 11:10:46;;;;;;;0.20;0.20;;;;;;;-4.25;62.06;98867.59;5088840;28;20154;-70
2023/02/18 11:13:15;;;;;;;0.30;0.30;;;;;;;-3.80;61.54;98877.78;5088708;28;20048;-70
2023/02/18 11:15:55;;;;;;;0.20;0.20;;;;;;;-3.33;60.01;98867.09;5070428;28;20044;-70
2023/02/18 11:18:29;;;;;;;0.30;0.30;;;;;;;-2.87;58.78;98865.38;5094403;28;20036;-70
2023/02/18 11:20:58;;;;;;;0.20;0.20;;;;;;;-2.72;57.81;98861.63;5105091;28;20179;-70
2023/02/18 11:23:24;;;;;;;0.30;0.30;;;;;;;-2.62;57.50;98853.16;5088807;28;20077;-70
2023/02/18 11:28:47;;;;;;;0.30;0.30;;;;;;;-2.07;55.25;98850.00;5105843;28;20069;-67
2023/02/18 11:31:22;;;;;;;0.20;0.20;;;;;;;-2.34;56.01;98843.94;5069459;28;20055;-68
2023/02/18 11:33:51;;;;;;;0.30;0.30;;;;;;;-2.05;55.91;98847.09;5083971;28;20055;-70
2023/02/18 11:36:22;;;;;;;0.20;0.20;;;;;;;-0.91;52.33;98845.34;5104348;28;20079;-68
2023/02/18 11:38:52;;;;;;;0.37;0.37;;;;;;;-1.16;52.10;98828.25;5106544;28;20055;-69
2023/02/18 11:41:28;;;;;;;0.40;0.40;;;;;;;-1.63;53.60;98825.19;5105747;28;20499;-68
2023/02/18 11:43:54;;;;;;;0.70;0.70;;;;;;;-1.55;53.81;98818.72;5102251;28;20047;-68
2023/02/18 11:46:23;;;;;;;0.60;0.60;;;;;;;-0.97;52.78;98825.59;5105756;28;20048;-68
2023/02/18 11:48:50;;;;;;;0.60;0.60;;;;;;;-0.81;52.01;98818.00;5107771;28;20056;-70
2023/02/18 11:51:22;;;;;;;0.50;0.50;;;;;;;0.17;51.04;98823.28;5108100;28;20065;-68
2023/02/18 11:54:01;;;;;;;0.20;0.20;;;;;;;0.09;49.41;98807.50;5071469;28;20081;-68
2023/02/18 11:56:31;;;;;;;0.32;0.32;;;;;;;-0.52;51.03;98815.59;5097008;28;20058;-70
2023/02/18 11:58:58;;;;;;;0.22;0.22;;;;;;;-0.97;51.79;98806.81;5055389;28;20051;-70
2023/02/18 12:01:32;;;;;;;0.17;0.17;;;;;;;-1.84;52.97;98799.56;4731234;28;10000306;-70
2023/02/18 12:04:03;;;;;;;0.20;0.20;;;;;;;-2.60;55.27;98789.53;5066497;28;20080;-67
2023/02/18 12:06:33;;;;;;;0.30;0.30;;;;;;;-2.54;55.62;98793.22;5082268;28;20587;-68
2023/02/18 12:09:04;;;;;;;0.20;0.20;;;;;;;-2.20;55.25;98791.16;5097134;28;20142;-68
2023/02/18 12:11:35;;;;;;;0.20;0.20;;;;;;;-2.20;55.03;98772.41;5050704;28;20212;-70
2023/02/18 12:14:02;;;;;;;0.20;0.20;;;;;;;-2.30;55.46;98780.91;5080055;28;20491;-70
2023/02/18 12:16:42;;;;;;;0.30;0.30;;;;;;;-2.21;55.83;98787.63;5066122;28;20126;-68
2023/02/18 12:19:41;;;;;;;0.70;0.70;;;;;;;-1.40;54.84;98778.16;5048566;28;20216;-68
2023/02/18 12:22:15;;;;;;;0.20;0.20;;;;;;;-0.59;51.99;98772.69;5032689;28;20044;-70
2023/02/18 12:24:58;;;;;;;0.40;0.40;;;;;;;-0.63;51.93;98766.94;5066159;28;20055;-67
2023/02/18 12:27:34;;;;;;;0.30;0.30;;;;;;;-0.77;51.97;98768.16;5067197;28;20059;-70
2023/02/18 12:30:27;;;;;;;0.30;0.30;;;;;;;0.04;50.53;98759.81;5065727;28;20051;-70
2023/02/18 12:33:02;;;;;;;0.30;0.30;;;;;;;0.06;50.37;98755.00;5060176;28;20048;-70
2023/02/18 12:35:51;;;;;;;0.30;0.30;;;;;;;-0.54;50.76;98763.97;5060653;28;20449;-70
2023/02/18 12:38:37;;;;;;;0.20;0.20;;;;;;;-1.49;51.87;98734.72;5076314;28;20063;-70
2023/02/18 12:41:26;;;;;;;0.30;0.30;;;;;;;-2.28;53.99;98749.38;5079763;28;20048;-70
2023/02/18 12:44:03;;;;;;;0.10;0.10;;;;;;;-2.54;55.13;98745.03;5065620;28;20094;-69
2023/02/18 12:46:46;;;;;;;0.20;0.20;;;;;;;-2.89;56.11;98756.91;5087414;28;20151;-68
2023/02/18 12:49:53;;;;;;;0.20;0.20;;;;;;;-3.28;57.61;98759.50;5039997;28;20040;-68